createdAt,value
2022-11-27T00:01:28.370Z,2.35
2022-11-27T00:03:56.329Z,2.08
2022-11-27T00:06:26.712Z,2.08
2022-11-27T00:08:53.646Z,1.90
2022-11-27T00:11:22.863Z,1.92
2022-11-27T00:13:50.645Z,2.10
2022-11-27T00:16:18.707Z,1.80
2022-11-27T00:18:45.762Z,2.25
2022-11-27T00:21:15.463Z,1.63
2022-11-27T00:23:42.567Z,1.90
2022-11-27T00:26:09.813Z,2.10
2022-11-27T00:28:36.776Z,2.13
2022-11-27T00:31:07.158Z,2.00
2022-11-27T00:33:33.805Z,1.75
2022-11-27T00:36:07.838Z,2.05
2022-11-27T00:38:38.685Z,1.80
2022-11-27T00:41:26.853Z,1.88
2022-11-27T00:43:54.243Z,1.63
2022-11-27T00:46:28.085Z,1.73
2022-11-27T00:48:56.507Z,1.77
2022-11-27T00:51:24.773Z,2.00
2022-11-27T00:53:52.016Z,1.70
2022-11-27T00:56:24.108Z,1.45
2022-11-27T00:58:51.432Z,1.80
2022-11-27T01:01:21.885Z,2.20
2022-11-27T01:03:49.035Z,1.60
2022-11-27T01:06:17.576Z,1.85
2022-11-27T01:08:44.866Z,1.45
2022-11-27T01:11:32.037Z,1.88
2022-11-27T01:14:02.031Z,1.83
2022-11-27T01:16:30.459Z,1.67
2022-11-27T01:18:58.736Z,1.80
2022-11-27T01:21:27.381Z,1.60
2022-11-27T01:23:54.849Z,1.52
2022-11-27T01:26:22.054Z,1.90
2022-11-27T01:28:52.302Z,1.85
2022-11-27T01:31:22.846Z,1.40
2022-11-27T01:33:54.057Z,1.60
2022-11-27T01:36:21.042Z,1.70
2022-11-27T01:38:47.724Z,1.57
2022-11-27T01:41:29.243Z,1.48
2022-11-27T01:44:03.895Z,1.90
2022-11-27T01:46:33.456Z,1.88
2022-11-27T01:49:25.904Z,1.45
2022-11-27T01:52:09.364Z,1.52
2022-11-27T01:55:00.049Z,2.08
2022-11-27T01:58:13.244Z,1.75
2022-11-27T02:00:40.681Z,2.22
2022-11-27T02:03:07.444Z,1.92
2022-11-27T02:05:34.772Z,2.08
2022-11-27T02:08:07.846Z,1.52
2022-11-27T02:10:49.400Z,1.38
2022-11-27T02:13:43.461Z,1.55
2022-11-27T02:16:18.875Z,1.95
2022-11-27T02:19:08.767Z,1.77
2022-11-27T02:21:44.140Z,1.60
2022-11-27T02:24:19.985Z,2.35
2022-11-27T02:27:14.273Z,2.15
2022-11-27T02:29:42.267Z,2.28
2022-11-27T02:34:57.605Z,1.83
2022-11-27T02:37:36.153Z,1.73
2022-11-27T02:40:14.261Z,2.30
2022-11-27T02:42:49.999Z,2.08
2022-11-27T02:45:23.599Z,1.27
2022-11-27T02:47:51.097Z,1.65
2022-11-27T02:50:22.315Z,1.35
2022-11-27T02:52:52.144Z,1.75
2022-11-27T02:55:23.990Z,2.00
2022-11-27T02:57:56.891Z,1.88
2022-11-27T03:00:23.874Z,1.77
2022-11-27T03:02:54.983Z,1.85
2022-11-27T03:05:23.680Z,1.80
2022-11-27T03:07:57.375Z,1.70
2022-11-27T03:10:32.461Z,1.70
2022-11-27T03:13:00.511Z,1.30
2022-11-27T03:15:37.604Z,1.48
2022-11-27T03:18:18.826Z,1.70
2022-11-27T03:20:50.161Z,1.55
2022-11-27T03:23:16.862Z,1.60
2022-11-27T03:25:43.459Z,1.45
2022-11-27T03:28:12.255Z,1.33
2022-11-27T03:30:40.643Z,1.30
2022-11-27T03:33:07.692Z,1.33
2022-11-27T03:35:34.331Z,1.00
2022-11-27T03:38:00.947Z,1.27
2022-11-27T03:40:45.909Z,1.52
2022-11-27T03:43:23.943Z,1.20
2022-11-27T03:46:05.247Z,1.10
2022-11-27T03:49:01.318Z,1.10
2022-11-27T03:51:49.594Z,1.13
2022-11-27T03:54:20.395Z,1.23
2022-11-27T03:56:46.959Z,1.00
2022-11-27T03:59:20.159Z,0.95
2022-11-27T04:01:47.381Z,1.20
2022-11-27T04:04:14.566Z,1.42
2022-11-27T04:06:41.287Z,0.80
2022-11-27T04:09:08.022Z,1.27
2022-11-27T04:11:34.668Z,1.15
2022-11-27T04:14:01.251Z,1.38
2022-11-27T04:16:27.989Z,1.40
2022-11-27T04:18:54.610Z,1.30
2022-11-27T04:21:21.403Z,1.52
2022-11-27T04:23:48.002Z,1.48
2022-11-27T04:26:14.685Z,1.52
2022-11-27T04:28:41.321Z,1.70
2022-11-27T04:31:08.012Z,1.83
2022-11-27T04:33:34.690Z,1.80
2022-11-27T04:36:01.343Z,1.60
2022-11-27T04:38:27.942Z,1.25
2022-11-27T04:40:54.632Z,1.38
2022-11-27T04:43:21.337Z,1.50
2022-11-27T04:45:48.000Z,1.50
2022-11-27T04:48:14.598Z,1.88
2022-11-27T04:50:41.502Z,1.40
2022-11-27T04:53:08.136Z,1.30
2022-11-27T04:55:35.572Z,1.63
2022-11-27T04:58:02.184Z,1.58
2022-11-27T05:00:29.002Z,1.40
2022-11-27T05:02:55.816Z,1.60
2022-11-27T05:05:22.490Z,1.58
2022-11-27T05:07:49.176Z,1.30
2022-11-27T05:10:16.040Z,1.95
2022-11-27T05:12:42.616Z,2.17
2022-11-27T05:15:09.633Z,1.85
2022-11-27T05:17:36.257Z,1.45
2022-11-27T05:20:03.674Z,2.15
2022-11-27T05:22:30.295Z,2.08
2022-11-27T05:24:56.919Z,1.98
2022-11-27T05:27:23.507Z,1.75
2022-11-27T05:29:50.115Z,1.70
2022-11-27T05:32:16.738Z,1.52
2022-11-27T05:34:43.464Z,1.83
2022-11-27T05:37:12.851Z,1.50
2022-11-27T05:39:41.812Z,1.58
2022-11-27T05:42:08.538Z,2.13
2022-11-27T05:44:35.189Z,1.83
2022-11-27T05:47:01.802Z,1.63
2022-11-27T05:49:28.447Z,2.13
2022-11-27T05:51:55.054Z,1.20
2022-11-27T05:54:21.787Z,2.10
2022-11-27T05:56:48.424Z,1.50
2022-11-27T05:59:15.432Z,2.05
2022-11-27T06:01:42.713Z,2.23
2022-11-27T06:04:09.383Z,2.60
2022-11-27T06:06:35.965Z,1.90
2022-11-27T06:09:03.485Z,2.33
2022-11-27T06:11:31.430Z,2.30
2022-11-27T06:13:58.097Z,2.38
2022-11-27T06:16:24.939Z,1.73
2022-11-27T06:18:55.940Z,1.88
2022-11-27T06:21:24.145Z,2.05
2022-11-27T06:23:55.532Z,2.58
2022-11-27T06:26:27.424Z,2.40
2022-11-27T06:28:55.524Z,2.60
2022-11-27T06:31:25.459Z,2.50
2022-11-27T06:33:53.869Z,2.45
2022-11-27T06:36:21.533Z,2.63
2022-11-27T06:38:48.150Z,2.33
2022-11-27T06:41:20.551Z,2.45
2022-11-27T06:43:47.670Z,2.30
2022-11-27T06:46:18.349Z,2.40
2022-11-27T06:48:46.902Z,2.30
2022-11-27T06:51:16.245Z,2.33
2022-11-27T06:53:44.155Z,2.60
2022-11-27T06:58:39.282Z,2.33
2022-11-27T07:01:08.947Z,2.30
2022-11-27T07:03:36.041Z,2.20
2022-11-27T07:06:05.247Z,2.13
2022-11-27T07:08:33.096Z,1.88
2022-11-27T07:13:34.145Z,2.00
2022-11-27T07:16:05.579Z,2.08
2022-11-27T07:18:36.528Z,2.38
2022-11-27T07:21:03.361Z,2.55
2022-11-27T07:23:30.559Z,2.40
2022-11-27T07:25:57.221Z,1.77
2022-11-27T07:28:24.668Z,2.50
2022-11-27T07:30:58.319Z,2.10
2022-11-27T07:33:25.856Z,2.33
2022-11-27T07:36:07.715Z,2.60
2022-11-27T07:38:34.771Z,1.83
2022-11-27T07:41:05.392Z,2.37
2022-11-27T07:43:33.752Z,2.33
2022-11-27T07:46:24.171Z,2.63
2022-11-27T07:48:51.316Z,2.33
2022-11-27T07:51:19.741Z,2.75
2022-11-27T07:53:46.487Z,2.50
2022-11-27T07:56:15.637Z,2.55
2022-11-27T07:58:42.504Z,3.00
2022-11-27T08:01:11.355Z,2.15
2022-11-27T08:03:38.408Z,2.85
2022-11-27T08:06:05.673Z,2.57
2022-11-27T08:08:33.300Z,2.60
2022-11-27T08:10:59.893Z,1.90
2022-11-27T08:13:26.485Z,2.65
2022-11-27T08:15:53.099Z,2.40
2022-11-27T08:18:19.743Z,2.53
2022-11-27T08:20:46.363Z,2.80
2022-11-27T08:23:13.155Z,2.50
2022-11-27T08:25:39.794Z,2.85
2022-11-27T08:28:06.437Z,2.05
2022-11-27T08:30:33.019Z,1.90
2022-11-27T08:32:59.877Z,1.90
2022-11-27T08:35:26.512Z,2.40
2022-11-27T08:37:53.236Z,2.35
2022-11-27T08:40:20.038Z,3.22
2022-11-27T08:42:46.665Z,4.82
2022-11-27T08:45:13.397Z,2.80
2022-11-27T08:47:40.007Z,2.28
2022-11-27T08:50:07.427Z,3.55
2022-11-27T08:52:34.021Z,3.78
2022-11-27T08:55:00.683Z,4.22
2022-11-27T08:57:27.294Z,3.65
2022-11-27T08:59:53.877Z,2.60
2022-11-27T09:02:20.484Z,3.10
2022-11-27T09:04:47.176Z,1.88
2022-11-27T09:07:15.642Z,3.90
2022-11-27T09:09:42.522Z,3.72
2022-11-27T09:12:09.161Z,5.03
2022-11-27T09:14:35.809Z,4.50
2022-11-27T09:17:02.498Z,3.03
2022-11-27T09:19:29.219Z,4.10
2022-11-27T09:21:56.180Z,3.47
2022-11-27T09:24:22.880Z,3.60
2022-11-27T09:26:49.466Z,3.53
2022-11-27T09:29:16.111Z,3.45
2022-11-27T09:31:42.835Z,3.90
2022-11-27T09:34:09.556Z,6.60
2022-11-27T09:36:36.280Z,4.05
2022-11-27T09:39:03.828Z,3.72
2022-11-27T09:41:49.142Z,3.83
2022-11-27T09:44:57.945Z,4.60
2022-11-27T09:47:41.801Z,4.20
2022-11-27T09:50:17.659Z,2.60
2022-11-27T09:52:57.943Z,3.78
2022-11-27T09:55:34.938Z,3.20
2022-11-27T09:58:16.816Z,3.35
2022-11-27T10:00:45.051Z,2.42
2022-11-27T10:03:17.081Z,4.78
2022-11-27T10:05:53.055Z,4.50
2022-11-27T10:08:52.317Z,3.22
2022-11-27T10:11:26.637Z,3.40
2022-11-27T10:14:06.536Z,4.32
2022-11-27T10:16:58.958Z,3.13
2022-11-27T10:19:44.417Z,3.28
2022-11-27T10:22:26.791Z,3.05
2022-11-27T10:25:25.511Z,1.95
2022-11-27T10:28:10.801Z,3.40
2022-11-27T10:30:44.118Z,3.70
2022-11-27T10:33:20.331Z,2.90
2022-11-27T10:35:49.323Z,2.95
2022-11-27T10:38:28.062Z,3.53
2022-11-27T10:41:05.301Z,2.97
2022-11-27T10:43:35.860Z,2.97
2022-11-27T10:46:20.891Z,3.47
2022-11-27T10:48:47.738Z,3.00
2022-11-27T10:51:18.517Z,3.15
2022-11-27T10:53:49.594Z,3.60
2022-11-27T10:56:36.643Z,3.80
2022-11-27T10:59:06.565Z,3.42
2022-11-27T11:01:52.895Z,2.75
2022-11-27T11:04:42.754Z,2.67
2022-11-27T11:07:28.375Z,3.22
2022-11-27T11:09:56.382Z,3.30
2022-11-27T11:14:56.522Z,4.00
2022-11-27T11:17:28.584Z,2.60
2022-11-27T11:19:55.349Z,3.35
2022-11-27T11:22:22.467Z,2.67
2022-11-27T11:24:52.046Z,3.15
2022-11-27T11:27:18.690Z,3.50
2022-11-27T11:30:01.784Z,3.40
2022-11-27T11:32:32.526Z,3.13
2022-11-27T11:35:09.534Z,3.70
2022-11-27T11:37:45.363Z,3.58
2022-11-27T11:40:16.588Z,3.00
2022-11-27T11:43:02.494Z,3.10
2022-11-27T11:45:33.120Z,5.35
2022-11-27T11:48:28.071Z,3.20
2022-11-27T11:51:08.098Z,4.03
2022-11-27T11:53:40.870Z,3.40
2022-11-27T11:56:32.985Z,3.33
2022-11-27T11:59:39.631Z,3.90
2022-11-27T12:02:34.888Z,3.50
2022-11-27T12:05:32.478Z,3.35
2022-11-27T12:11:02.412Z,2.45
2022-11-27T12:13:44.410Z,3.22
2022-11-27T12:16:29.763Z,3.08
2022-11-27T12:19:06.410Z,2.60
2022-11-27T12:21:57.812Z,2.65
2022-11-27T12:24:34.227Z,3.33
2022-11-27T12:27:36.225Z,3.08
2022-11-27T12:30:13.227Z,4.35
2022-11-27T12:33:01.194Z,4.20
2022-11-27T12:35:50.702Z,3.45
2022-11-27T12:38:28.716Z,3.10
2022-11-27T12:41:18.452Z,3.65
2022-11-27T12:43:52.268Z,3.63
2022-11-27T12:46:28.424Z,3.67
2022-11-27T12:49:18.982Z,3.47
2022-11-27T12:51:56.402Z,4.10
2022-11-27T12:54:32.568Z,3.40
2022-11-27T12:57:07.349Z,6.07
2022-11-27T12:59:33.921Z,4.82
2022-11-27T13:02:09.717Z,3.45
2022-11-27T13:04:49.908Z,3.33
2022-11-27T13:07:24.932Z,2.42
2022-11-27T13:10:03.314Z,2.63
2022-11-27T13:12:40.136Z,3.70
2022-11-27T13:15:17.217Z,3.10
2022-11-27T13:17:45.651Z,3.80
2022-11-27T13:20:20.451Z,3.50
2022-11-27T13:22:48.552Z,3.80
2022-11-27T13:25:15.748Z,3.58
2022-11-27T13:27:46.691Z,6.13
2022-11-27T13:30:25.119Z,14.35
2022-11-27T13:32:56.195Z,4.65
2022-11-27T13:35:25.766Z,3.58
2022-11-27T13:38:19.210Z,4.22
2022-11-27T13:40:52.498Z,4.00
2022-11-27T13:43:29.624Z,3.88
2022-11-27T13:46:09.251Z,3.70
2022-11-27T13:48:41.388Z,5.40
2022-11-27T13:51:10.533Z,4.40
2022-11-27T13:53:42.293Z,5.55
2022-11-27T13:56:09.508Z,4.85
2022-11-27T13:58:39.420Z,4.70
2022-11-27T14:01:18.889Z,5.13
2022-11-27T14:03:45.922Z,6.40
2022-11-27T14:06:21.251Z,5.25
2022-11-27T14:08:54.599Z,5.07
2022-11-27T14:11:43.930Z,3.45
2022-11-27T14:14:17.346Z,4.28
2022-11-27T14:16:57.692Z,3.38
2022-11-27T14:19:34.658Z,4.80
2022-11-27T14:22:16.910Z,3.83
2022-11-27T14:24:45.890Z,3.70
2022-11-27T14:27:24.857Z,3.15
2022-11-27T14:29:51.933Z,4.28
2022-11-27T14:32:20.767Z,4.32
2022-11-27T14:34:48.786Z,3.53
2022-11-27T14:37:26.562Z,4.05
2022-11-27T14:42:28.282Z,3.67
2022-11-27T14:45:13.605Z,4.13
2022-11-27T14:47:47.727Z,4.18
2022-11-27T14:50:15.567Z,3.83
2022-11-27T14:52:44.935Z,4.30
2022-11-27T14:55:19.703Z,4.15
2022-11-27T14:57:48.318Z,3.90
2022-11-27T15:00:20.109Z,4.50
2022-11-27T15:02:49.741Z,4.57
2022-11-27T15:05:28.710Z,4.15
2022-11-27T15:07:58.092Z,4.47
2022-11-27T15:10:39.479Z,4.63
2022-11-27T15:13:08.399Z,4.22
2022-11-27T15:15:44.220Z,4.57
2022-11-27T15:18:22.757Z,3.95
2022-11-27T15:20:50.285Z,3.80
2022-11-27T15:23:21.310Z,4.30
2022-11-27T15:25:52.314Z,4.43
2022-11-27T15:28:37.210Z,5.78
2022-11-27T15:31:32.794Z,4.97
2022-11-27T15:34:02.967Z,5.07
2022-11-27T15:36:38.728Z,4.43
2022-11-27T15:39:14.628Z,4.53
2022-11-27T15:41:50.110Z,4.97
2022-11-27T15:44:19.282Z,6.40
2022-11-27T15:46:52.167Z,4.57
2022-11-27T15:49:23.946Z,4.85
2022-11-27T15:51:50.856Z,5.60
2022-11-27T15:54:18.008Z,5.88
2022-11-27T15:56:46.808Z,5.18
2022-11-27T15:59:20.534Z,4.70
2022-11-27T16:01:47.733Z,4.75
2022-11-27T16:04:14.656Z,4.78
2022-11-27T16:06:41.332Z,5.60
2022-11-27T16:09:08.182Z,4.28
2022-11-27T16:11:37.606Z,4.70
2022-11-27T16:14:04.289Z,4.47
2022-11-27T16:16:31.594Z,5.20
2022-11-27T16:19:00.835Z,4.75
2022-11-27T16:21:29.919Z,4.75
2022-11-27T16:23:58.773Z,5.63
2022-11-27T16:26:26.443Z,5.10
2022-11-27T16:28:53.410Z,4.85
2022-11-27T16:31:20.569Z,5.20
2022-11-27T16:33:48.198Z,4.95
2022-11-27T16:36:21.178Z,4.57
2022-11-27T16:38:48.668Z,4.80
2022-11-27T16:41:18.072Z,5.72
2022-11-27T16:43:51.002Z,4.72
2022-11-27T16:46:26.359Z,3.35
2022-11-27T16:48:56.035Z,4.53
2022-11-27T16:51:28.645Z,4.35
2022-11-27T16:53:57.659Z,3.58
2022-11-27T16:56:26.835Z,4.57
2022-11-27T16:58:57.956Z,5.15
2022-11-27T17:01:34.021Z,4.70
2022-11-27T17:04:09.293Z,4.88
2022-11-27T17:06:37.957Z,5.00
2022-11-27T17:09:06.783Z,5.30
2022-11-27T17:11:36.016Z,5.65
2022-11-27T17:14:06.876Z,5.20
2022-11-27T17:16:35.782Z,4.65
2022-11-27T17:19:03.819Z,5.25
2022-11-27T17:21:33.793Z,6.15
2022-11-27T17:24:10.120Z,5.45
2022-11-27T17:26:44.620Z,6.57
2022-11-27T17:29:16.356Z,5.43
2022-11-27T17:31:43.626Z,7.47
2022-11-27T17:34:13.643Z,6.05
2022-11-27T17:36:42.177Z,6.78
2022-11-27T17:39:11.757Z,7.75
2022-11-27T17:41:44.503Z,7.05
2022-11-27T17:44:12.113Z,8.52
2022-11-27T17:46:42.794Z,7.90
2022-11-27T17:49:10.872Z,7.75
2022-11-27T17:51:38.342Z,8.98
2022-11-27T17:54:06.068Z,6.57
2022-11-27T17:56:34.009Z,5.47
2022-11-27T17:59:00.970Z,6.55
2022-11-27T18:01:30.167Z,7.35
2022-11-27T18:04:01.196Z,6.72
2022-11-27T18:06:30.857Z,7.60
2022-11-27T18:08:59.768Z,7.88
2022-11-27T18:11:29.550Z,6.60
2022-11-27T18:13:59.192Z,6.00
2022-11-27T18:16:32.210Z,8.13
2022-11-27T18:19:00.274Z,6.43
